createdAt,value
2018-06-03T00:08:15.458Z,16.70
2018-06-03T00:18:16.780Z,16.70
2018-06-03T00:28:18.099Z,16.70
2018-06-03T00:38:19.415Z,16.60
2018-06-03T00:48:20.765Z,16.60
2018-06-03T00:58:22.896Z,16.50
2018-06-03T01:08:24.247Z,16.50
2018-06-03T01:18:25.603Z,16.50
2018-06-03T01:28:26.951Z,16.40
2018-06-03T01:38:28.294Z,16.30
2018-06-03T02:28:57.622Z,16.00
2018-06-03T02:38:59.740Z,15.70
2018-06-03T02:49:01.090Z,15.60
2018-06-03T02:59:03.196Z,15.30
2018-06-03T03:09:05.320Z,15.20
2018-06-03T03:19:06.693Z,15.20
2018-06-03T03:29:08.041Z,15.10
2018-06-03T03:39:09.360Z,15.00
2018-06-03T03:49:10.675Z,15.00
2018-06-03T03:59:11.990Z,15.00
2018-06-03T04:09:13.342Z,15.20
2018-06-03T04:19:14.645Z,15.40
2018-06-03T04:29:16.006Z,16.00
2018-06-03T04:39:17.374Z,16.60
2018-06-03T04:49:18.738Z,17.00
2018-06-03T04:59:20.185Z,16.90
2018-06-03T05:09:22.310Z,17.40
2018-06-03T05:19:24.422Z,17.60
2018-06-03T05:29:27.409Z,17.60
2018-06-03T05:39:28.772Z,17.60
2018-06-03T05:49:30.121Z,17.70
2018-06-03T05:59:31.441Z,17.90
2018-06-03T06:09:33.531Z,18.40
2018-06-03T06:19:34.857Z,18.40
2018-06-03T06:29:37.005Z,19.60
2018-06-03T06:49:45.598Z,20.50
2018-06-03T06:59:47.719Z,24.10
2018-06-03T07:09:55.443Z,24.00
2018-06-03T07:40:10.846Z,24.60
2018-06-03T07:50:12.285Z,25.50
2018-06-03T08:00:13.606Z,24.00
2018-06-03T08:10:14.922Z,24.60
2018-06-03T08:20:17.004Z,25.80
2018-06-03T08:30:18.371Z,25.80
2018-06-03T08:40:19.718Z,25.00
2018-06-03T08:50:21.066Z,25.30
2018-06-03T09:00:22.459Z,24.40
2018-06-03T09:10:23.803Z,24.10
2018-06-03T09:20:25.161Z,27.00
2018-06-03T09:40:33.486Z,33.10
2018-06-03T09:50:34.803Z,37.00
2018-06-03T10:00:36.131Z,37.40
2018-06-03T10:10:38.226Z,38.70
2018-06-03T10:20:44.315Z,38.70
2018-06-03T10:30:45.674Z,37.30
2018-06-03T10:40:47.034Z,34.40
2018-06-03T10:50:48.398Z,30.90
2018-06-03T11:00:49.751Z,30.00
2018-06-03T11:10:51.877Z,29.00
2018-06-03T11:20:53.229Z,28.90
2018-06-03T11:30:54.542Z,29.00
2018-06-03T11:40:55.882Z,28.70
2018-06-03T11:50:57.195Z,28.20
2018-06-03T12:00:58.525Z,28.60
2018-06-03T12:10:59.836Z,27.70
2018-06-03T12:21:01.924Z,28.10
2018-06-03T12:41:10.901Z,28.30
2018-06-03T13:01:18.962Z,28.40
2018-06-03T13:11:20.314Z,28.40
2018-06-03T13:21:22.431Z,29.70
2018-06-03T13:31:23.780Z,29.70
2018-06-03T13:41:25.126Z,29.40
2018-06-03T14:11:45.037Z,23.40
2018-06-03T14:21:46.377Z,23.20
2018-06-03T14:31:47.702Z,23.70
2018-06-03T14:41:49.053Z,24.00
2018-06-03T14:51:50.423Z,24.40
2018-06-03T15:01:51.740Z,24.40
2018-06-03T15:11:53.098Z,24.60
2018-06-03T15:21:54.464Z,24.80
2018-06-03T15:31:55.848Z,24.30
2018-06-03T15:41:57.213Z,23.90
2018-06-03T15:51:58.719Z,23.90
2018-06-03T16:02:00.050Z,23.60
2018-06-03T16:12:01.378Z,23.20
2018-06-03T16:22:03.469Z,22.90
2018-06-03T16:32:04.773Z,22.90
2018-06-03T16:42:06.082Z,22.10
2018-06-03T16:52:08.186Z,21.40
2018-06-03T17:02:12.391Z,21.20
2018-06-03T17:12:13.746Z,21.20
2018-06-03T17:32:23.089Z,20.60
2018-06-03T17:42:24.541Z,20.80
2018-06-03T17:52:25.874Z,20.70
2018-06-03T18:02:27.189Z,20.40
2018-06-03T18:12:29.274Z,19.70
2018-06-03T18:22:30.671Z,19.60
2018-06-03T18:32:31.956Z,19.40
2018-06-03T18:42:38.869Z,19.30
2018-06-03T18:52:40.218Z,18.90
2018-06-03T19:02:42.340Z,18.50
2018-06-03T19:12:43.688Z,18.50
2018-06-03T19:22:45.037Z,18.40
2018-06-03T19:32:47.159Z,18.10
2018-06-03T19:42:48.529Z,18.00
2018-06-03T19:52:49.848Z,18.00
2018-06-03T20:02:51.925Z,17.80
2018-06-03T20:12:53.243Z,17.80
2018-06-03T20:22:55.380Z,17.80
2018-06-03T20:32:56.818Z,17.80
2018-06-03T20:42:58.191Z,17.80
2018-06-03T20:52:59.559Z,17.70
2018-06-03T21:03:01.674Z,17.70
2018-06-03T21:13:03.034Z,17.60
2018-06-03T21:23:04.386Z,17.40
2018-06-03T21:33:05.847Z,17.30
2018-06-03T21:43:07.185Z,17.20
2018-06-03T21:53:08.515Z,17.30
2018-06-03T22:03:09.878Z,17.40
2018-06-03T22:13:11.207Z,17.30
2018-06-03T22:23:12.543Z,17.30
2018-06-03T22:33:15.957Z,17.20
2018-06-03T22:43:17.282Z,17.30
2018-06-03T22:53:18.626Z,17.40
2018-06-03T23:03:19.985Z,17.30
2018-06-03T23:13:21.329Z,17.30
2018-06-03T23:23:22.678Z,17.20
2018-06-03T23:33:24.795Z,16.90
2018-06-03T23:43:26.145Z,16.90
2018-06-03T23:53:27.464Z,16.80
